Accueil
METAR-TAF:

METAR-TAF

Aéroports :

Aéroport de Milan Malpensa

Milan, Italie

latitude: 45-37N, longitude: 008-44E, altitude: 234 m

Observation

Le bulletin a été fait il y a 24 minutes, à 08:20 UTC
Vent 10 kt de est
Température 7°C
Humidité 61%
Pression 1034 hPa
Visibilité 10 km ou plus
pas de nuages en-dessous de 1500 mètres et pas de cumulonimbus.

METAR: LIMC 230820Z 09010KT CAVOK 07/00 Q1034 NOSIG

Heure: 09:44 (08:44 UTC)

Prévision

Le bulletin a été fait il y a 3 heures et 44 minutes, à 05:00 UTC
Prévision valable du 23 à 06 UTC au 24 à 12 UTC
Vent 12 kt de est/sud-est
Visibilité 10 km ou plus
pas de nuages en-dessous de 1500 mètres et pas de cumulonimbus.
Evoluant progressivement
du 23 à 16 UTC au 23 à 19 UTC
Vent 5 kt de direction variable

TAF: LIMC 230500Z 2306/2412 12012KT CAVOK BECMG 2316/2319 VRB05KT

Observations et prévisions météorologiques de plus de 4000 aéroports (messages METAR et TAF).

Les stations disponibles sont représentées par des disques jaunes et rouges sur la carte.

Passer la souris dessus pour voir le nom de la station.

Cliquer dessus pour voir les observations et prévisions météorologiques.

Pour changer de carte: cliquez sur les boutons verts avec une croix noire pour zoomer, sur le bouton vert avec un tiret pour effectuer un zoom arrière, ou sur les flèches vertes pour les cartes adjacentes.


METAR-TAF: